F/V Renaissance II — FMEW — position and weather

sailwx.info

Track history (hours):
 
Tides and Currents Weather Stations Pressure Air Temp Water Temp Dewpoint Dewpoint Depression Visibility Wind Speed Wind Dir Waves Ship Positions

F/V Renaissance II

Last reported at 2017-Apr-30 20:30 UTC. Time now 2017-Apr-30 20:41 UTC.
Position N 46°30' W 001°47'.

Length 18 m.

Type: Fishing. MMSI: 228216600.

Date/timePositionNaut miles runAvg speedWind from/ knotsBaromVisibWave heightAir tempDewpointWater temp
2017-Apr-30 20:30N 46°30' W 001°47'0 0.0
2017-Apr-30 20:00N 46°30' W 001°47'0 0.0
2017-Apr-30 19:30N 46°30' W 001°47'0 0.0
2017-Apr-30 19:00N 46°30' W 001°47'0 0.0
2017-Apr-30 18:30N 46°30' W 001°47'0 0.0
2017-Apr-30 18:00N 46°30' W 001°47'0 0.0
2017-Apr-30 17:30N 46°30' W 001°47'2 3.2
2017-Apr-30 17:00N 46°28' W 001°48'5 9.5
2017-Apr-30 16:30N 46°30' W 001°55'5 9.9
2017-Apr-30 16:00N 46°31' W 002°02'510.0
2017-Apr-30 15:29N 46°32' W 002°09'24 3.8
2017-Apr-30 09:16N 46°43' W 002°40'5 4.0
2017-Apr-30 08:06N 46°47' W 002°37'0 0.6
2017-Apr-30 07:52N 46°47' W 002°36'43 1.6
2017-Apr-29 04:29N 46°13' W 001°60'4 9.5
2017-Apr-29 04:00N 46°17' W 001°57'5 9.5
2017-Apr-29 03:30N 46°21' W 001°53'5 9.5
2017-Apr-29 03:00N 46°25' W 001°50'5 9.0
2017-Apr-29 02:30N 46°29' W 001°47'0 0.0
2017-Apr-27 15:21N 46°29' W 001°48'2 6.6
2017-Apr-27 15:01N 46°29' W 001°51'1010.3
2017-Apr-27 14:01N 46°35' W 002°03'7 0.8
2017-Apr-27 04:19N 46°37' W 002°13'3 9.4
2017-Apr-27 04:00N 46°36' W 002°09'5 9.4
2017-Apr-27 03:30N 46°34' W 002°03'5 9.4
2017-Apr-27 03:01N 46°31' W 001°57'5 9.3
2017-Apr-27 02:31N 46°29' W 001°51'3 5.6
2017-Apr-27 02:00N 46°30' W 001°47'0 0.4
2017-Apr-27 01:30N 46°30' W 001°47'0 0.0
2017-Apr-27 01:01N 46°30' W 001°47'0 0.8
2017-Apr-27 00:30N 46°30' W 001°48'5 9.1
2017-Apr-27 00:01N 46°25' W 001°47'510.0
2017-Apr-26 23:30N 46°20' W 001°47'510.2
2017-Apr-26 23:00N 46°15' W 001°47'510.0
2017-Apr-26 22:29N 46°10' W 001°47'69 1.8
2017-Apr-25 07:13N 45°01' W 001°43'11 2.2
2017-Apr-25 02:24N 45°11' W 001°39'2 5.3
2017-Apr-25 01:57N 45°13' W 001°38'8 5.1
2017-Apr-25 00:27N 45°21' W 001°35'7 4.9
2017-Apr-24 23:00N 45°28' W 001°33'2 3.9
2017-Apr-24 22:28N 45°30' W 001°32'2 4.9
2017-Apr-24 22:00N 45°32' W 001°31'3 5.1
2017-Apr-24 21:28N 45°35' W 001°30'18 3.6
2017-Apr-24 16:28N 45°31' W 001°55'1 1.5
2017-Apr-24 15:37N 45°32' W 001°54'1 5.2
2017-Apr-24 15:29N 45°33' W 001°53'3 5.5
2017-Apr-24 14:54N 45°31' W 001°58'0 0.9
2017-Apr-24 14:23N 45°32' W 001°57'40 3.4
2017-Apr-24 02:32N 46°12' W 001°53'0 9.4
2017-Apr-24 02:30N 46°12' W 001°53'4 9.2
2017-Apr-24 02:01N 46°16' W 001°51'5 9.4
2017-Apr-24 01:31N 46°21' W 001°50'5 9.1
2017-Apr-24 01:01N 46°25' W 001°48'4 8.6
2017-Apr-24 00:30N 46°30' W 001°48'0 0.5
2017-Apr-24 00:00N 46°30' W 001°47'0 0.4
2017-Apr-23 23:31N 46°30' W 001°47'0 0.1
2017-Apr-23 23:01N 46°30' W 001°47'2 4.3
2017-Apr-23 22:30N 46°28' W 001°47'5 9.9
2017-Apr-23 22:01N 46°23' W 001°48'510.0
2017-Apr-23 21:31N 46°18' W 001°48'510.1
2017-Apr-23 21:01N 46°13' W 001°49'83 2.3
2017-Apr-22 08:44N 45°52' W 003°45'3 6.5
2017-Apr-22 08:20N 45°51' W 003°41'1 1.9
2017-Apr-22 07:59N 45°51' W 003°42'1 1.4
2017-Apr-22 07:07N 45°51' W 003°44'0 0.8
2017-Apr-22 06:46N 45°52' W 003°44'1 1.8
2017-Apr-22 06:28N 45°51' W 003°44'1 1.2
2017-Apr-22 06:00N 45°52' W 003°44'99 8.0
2017-Apr-21 17:40N 44°60' W 001°45'0 0.4
2017-Apr-21 17:20N 44°60' W 001°45'1 0.7
2017-Apr-21 15:28N 45°00' W 001°43'2 2.8
2017-Apr-21 14:48N 45°00' W 001°46'0 0.8
2017-Apr-21 14:31N 45°00' W 001°45'1 0.9
2017-Apr-21 12:58N 45°01' W 001°44'0 0.3
2017-Apr-21 12:29N 45°01' W 001°44'0 0.8
2017-Apr-21 11:51N 45°01' W 001°43'9 4.8
2017-Apr-21 09:57N 44°54' W 001°35'2 1.1
2017-Apr-21 08:05N 44°56' W 001°33'79 8.9
2017-Apr-20 23:13N 46°14' W 001°45'2 9.7
2017-Apr-20 23:01N 46°16' W 001°45'5 9.8
2017-Apr-20 22:29N 46°21' W 001°46'5 9.9
2017-Apr-20 22:01N 46°26' W 001°47'4 7.6
2017-Apr-20 21:30N 46°30' W 001°47'0 0.0
2017-Apr-20 21:01N 46°30' W 001°47'  
Track history (hours):
 
Tides and Currents Weather Stations Pressure Air Temp Water Temp Dewpoint Dewpoint Depression Visibility Wind Speed Wind Dir Waves Ship Positions

F/V Renaissance II

Last reported at 2017-Apr-30 20:30 UTC. Time now 2017-Apr-30 20:41 UTC.
Position N 46°30' W 001°47'.

Length 18 m.

Type: Fishing. MMSI: 228216600.

Date/timePositionNaut miles runAvg speedWind from/ knotsBaromVisibWave heightAir tempDewpointWater temp
2017-Apr-30 20:30N 46°30' W 001°47'0 0.0
2017-Apr-30 20:00N 46°30' W 001°47'0 0.0
2017-Apr-30 19:30N 46°30' W 001°47'0 0.0
2017-Apr-30 19:00N 46°30' W 001°47'0 0.0
2017-Apr-30 18:30N 46°30' W 001°47'0 0.0
2017-Apr-30 18:00N 46°30' W 001°47'0 0.0
2017-Apr-30 17:30N 46°30' W 001°47'2 3.2
2017-Apr-30 17:00N 46°28' W 001°48'5 9.5
2017-Apr-30 16:30N 46°30' W 001°55'5 9.9
2017-Apr-30 16:00N 46°31' W 002°02'510.0
2017-Apr-30 15:29N 46°32' W 002°09'24 3.8
2017-Apr-30 09:16N 46°43' W 002°40'5 4.0
2017-Apr-30 08:06N 46°47' W 002°37'0 0.6
2017-Apr-30 07:52N 46°47' W 002°36'43 1.6
2017-Apr-29 04:29N 46°13' W 001°60'4 9.5
2017-Apr-29 04:00N 46°17' W 001°57'5 9.5
2017-Apr-29 03:30N 46°21' W 001°53'5 9.5
2017-Apr-29 03:00N 46°25' W 001°50'5 9.0
2017-Apr-29 02:30N 46°29' W 001°47'0 0.0
2017-Apr-27 15:21N 46°29' W 001°48'2 6.6
2017-Apr-27 15:01N 46°29' W 001°51'1010.3
2017-Apr-27 14:01N 46°35' W 002°03'7 0.8
2017-Apr-27 04:19N 46°37' W 002°13'3 9.4
2017-Apr-27 04:00N 46°36' W 002°09'5 9.4
2017-Apr-27 03:30N 46°34' W 002°03'5 9.4
2017-Apr-27 03:01N 46°31' W 001°57'5 9.3
2017-Apr-27 02:31N 46°29' W 001°51'3 5.6
2017-Apr-27 02:00N 46°30' W 001°47'0 0.4
2017-Apr-27 01:30N 46°30' W 001°47'0 0.0
2017-Apr-27 01:01N 46°30' W 001°47'0 0.8
2017-Apr-27 00:30N 46°30' W 001°48'5 9.1
2017-Apr-27 00:01N 46°25' W 001°47'510.0
2017-Apr-26 23:30N 46°20' W 001°47'510.2
2017-Apr-26 23:00N 46°15' W 001°47'510.0
2017-Apr-26 22:29N 46°10' W 001°47'69 1.8
2017-Apr-25 07:13N 45°01' W 001°43'11 2.2
2017-Apr-25 02:24N 45°11' W 001°39'2 5.3
2017-Apr-25 01:57N 45°13' W 001°38'8 5.1
2017-Apr-25 00:27N 45°21' W 001°35'7 4.9
2017-Apr-24 23:00N 45°28' W 001°33'2 3.9
2017-Apr-24 22:28N 45°30' W 001°32'2 4.9
2017-Apr-24 22:00N 45°32' W 001°31'3 5.1
2017-Apr-24 21:28N 45°35' W 001°30'18 3.6
2017-Apr-24 16:28N 45°31' W 001°55'1 1.5
2017-Apr-24 15:37N 45°32' W 001°54'1 5.2
2017-Apr-24 15:29N 45°33' W 001°53'3 5.5
2017-Apr-24 14:54N 45°31' W 001°58'0 0.9
2017-Apr-24 14:23N 45°32' W 001°57'40 3.4
2017-Apr-24 02:32N 46°12' W 001°53'0 9.4
2017-Apr-24 02:30N 46°12' W 001°53'4 9.2
2017-Apr-24 02:01N 46°16' W 001°51'5 9.4
2017-Apr-24 01:31N 46°21' W 001°50'5 9.1
2017-Apr-24 01:01N 46°25' W 001°48'4 8.6
2017-Apr-24 00:30N 46°30' W 001°48'0 0.5
2017-Apr-24 00:00N 46°30' W 001°47'0 0.4
2017-Apr-23 23:31N 46°30' W 001°47'0 0.1
2017-Apr-23 23:01N 46°30' W 001°47'2 4.3
2017-Apr-23 22:30N 46°28' W 001°47'5 9.9
2017-Apr-23 22:01N 46°23' W 001°48'510.0
2017-Apr-23 21:31N 46°18' W 001°48'510.1
2017-Apr-23 21:01N 46°13' W 001°49'83 2.3
2017-Apr-22 08:44N 45°52' W 003°45'3 6.5
2017-Apr-22 08:20N 45°51' W 003°41'1 1.9
2017-Apr-22 07:59N 45°51' W 003°42'1 1.4
2017-Apr-22 07:07N 45°51' W 003°44'0 0.8
2017-Apr-22 06:46N 45°52' W 003°44'1 1.8
2017-Apr-22 06:28N 45°51' W 003°44'1 1.2
2017-Apr-22 06:00N 45°52' W 003°44'99 8.0
2017-Apr-21 17:40N 44°60' W 001°45'0 0.4
2017-Apr-21 17:20N 44°60' W 001°45'1 0.7
2017-Apr-21 15:28N 45°00' W 001°43'2 2.8
2017-Apr-21 14:48N 45°00' W 001°46'0 0.8
2017-Apr-21 14:31N 45°00' W 001°45'1 0.9
2017-Apr-21 12:58N 45°01' W 001°44'0 0.3
2017-Apr-21 12:29N 45°01' W 001°44'0 0.8
2017-Apr-21 11:51N 45°01' W 001°43'9 4.8
2017-Apr-21 09:57N 44°54' W 001°35'2 1.1
2017-Apr-21 08:05N 44°56' W 001°33'79 8.9
2017-Apr-20 23:13N 46°14' W 001°45'2 9.7
2017-Apr-20 23:01N 46°16' W 001°45'5 9.8
2017-Apr-20 22:29N 46°21' W 001°46'5 9.9
2017-Apr-20 22:01N 46°26' W 001°47'4 7.6
2017-Apr-20 21:30N 46°30' W 001°47'0 0.0
2017-Apr-20 21:01N 46°30' W 001°47'  

Dump ship's entire track history